sensor_id;sensor_type;location;lat;lon;timestamp;pressure;altitude;pressure_sealevel;temperature;humidity
21988;BME280;11158;53.404;-1.510;2023-03-25T00:02:03;98112.25;;;10.71;61.15
21988;BME280;11158;53.404;-1.510;2023-03-25T00:04:50;98108.22;;;10.68;60.48
21988;BME280;11158;53.404;-1.510;2023-03-25T00:07:35;98103.88;;;10.50;60.52
21988;BME280;11158;53.404;-1.510;2023-03-25T00:10:19;98114.97;;;9.78;62.97
21988;BME280;11158;53.404;-1.510;2023-03-25T00:13:04;98118.69;;;9.89;61.83
21988;BME280;11158;53.404;-1.510;2023-03-25T00:15:50;98109.94;;;10.05;61.69
21988;BME280;11158;53.404;-1.510;2023-03-25T00:18:36;98114.25;;;10.06;61.39
21988;BME280;11158;53.404;-1.510;2023-03-25T00:21:20;98104.81;;;9.63;63.33
21988;BME280;11158;53.404;-1.510;2023-03-25T00:24:06;98108.09;;;9.94;63.72
21988;BME280;11158;53.404;-1.510;2023-03-25T00:26:50;98102.41;;;10.02;63.41
21988;BME280;11158;53.404;-1.510;2023-03-25T00:29:34;98106.22;;;10.06;63.67
21988;BME280;11158;53.404;-1.510;2023-03-25T00:32:19;98111.31;;;10.07;63.20
21988;BME280;11158;53.404;-1.510;2023-03-25T00:35:05;98095.50;;;10.58;61.58
21988;BME280;11158;53.404;-1.510;2023-03-25T00:37:51;98099.06;;;10.81;59.86
21988;BME280;11158;53.404;-1.510;2023-03-25T00:40:40;98097.63;;;10.73;60.71
21988;BME280;11158;53.404;-1.510;2023-03-25T00:43:24;98083.78;;;10.19;62.15
21988;BME280;11158;53.404;-1.510;2023-03-25T00:46:09;98090.00;;;9.96;63.08
21988;BME280;11158;53.404;-1.510;2023-03-25T00:48:54;98090.66;;;10.03;63.05
21988;BME280;11158;53.404;-1.510;2023-03-25T00:51:39;98086.94;;;10.16;62.36
21988;BME280;11158;53.404;-1.510;2023-03-25T00:54:24;98081.38;;;10.05;61.90
21988;BME280;11158;53.404;-1.510;2023-03-25T00:57:08;98081.94;;;9.79;62.95
21988;BME280;11158;53.404;-1.510;2023-03-25T00:59:52;98077.84;;;10.17;61.60
21988;BME280;11158;53.404;-1.510;2023-03-25T01:02:36;98078.41;;;10.59;60.39
21988;BME280;11158;53.404;-1.510;2023-03-25T01:05:22;98076.28;;;9.52;64.18
21988;BME280;11158;53.404;-1.510;2023-03-25T01:08:06;98061.34;;;9.39;63.86
21988;BME280;11158;53.404;-1.510;2023-03-25T01:10:52;98060.66;;;9.55;63.49
21988;BME280;11158;53.404;-1.510;2023-03-25T01:13:36;98064.22;;;9.61;63.08
21988;BME280;11158;53.404;-1.510;2023-03-25T01:16:21;98057.41;;;9.41;64.04
21988;BME280;11158;53.404;-1.510;2023-03-25T01:19:06;98058.44;;;9.40;63.85
21988;BME280;11158;53.404;-1.510;2023-03-25T01:21:50;98056.09;;;9.68;63.13
21988;BME280;11158;53.404;-1.510;2023-03-25T01:24:34;98001.22;;;9.19;63.76
21988;BME280;11158;53.404;-1.510;2023-03-25T01:27:18;98032.03;;;9.27;64.34
21988;BME280;11158;53.404;-1.510;2023-03-25T01:30:03;98053.34;;;9.15;63.71
21988;BME280;11158;53.404;-1.510;2023-03-25T01:32:47;98058.31;;;9.59;62.67
21988;BME280;11158;53.404;-1.510;2023-03-25T01:35:31;98063.63;;;9.59;63.13
21988;BME280;11158;53.404;-1.510;2023-03-25T01:38:15;98058.91;;;9.37;63.15
21988;BME280;11158;53.404;-1.510;2023-03-25T01:41:00;98050.81;;;9.32;62.87
21988;BME280;11158;53.404;-1.510;2023-03-25T01:44:03;98073.75;;;9.33;63.76
21988;BME280;11158;53.404;-1.510;2023-03-25T01:46:51;98059.94;;;8.77;65.04
21988;BME280;11158;53.404;-1.510;2023-03-25T01:49:38;98069.34;;;9.39;63.55
21988;BME280;11158;53.404;-1.510;2023-03-25T01:52:25;98066.69;;;9.27;64.43
21988;BME280;11158;53.404;-1.510;2023-03-25T01:55:10;98062.38;;;9.50;63.47
21988;BME280;11158;53.404;-1.510;2023-03-25T01:57:56;98068.19;;;9.11;65.39
21988;BME280;11158;53.404;-1.510;2023-03-25T02:00:43;98072.16;;;9.32;63.92
21988;BME280;11158;53.404;-1.510;2023-03-25T02:03:29;98065.41;;;9.06;65.55
21988;BME280;11158;53.404;-1.510;2023-03-25T02:06:23;98067.50;;;9.16;65.13
21988;BME280;11158;53.404;-1.510;2023-03-25T02:09:16;98079.69;;;9.12;64.83
21988;BME280;11158;53.404;-1.510;2023-03-25T02:12:01;98061.13;;;9.29;64.08
21988;BME280;11158;53.404;-1.510;2023-03-25T02:14:45;98064.38;;;9.19;64.49
21988;BME280;11158;53.404;-1.510;2023-03-25T02:42:12;98069.28;;;9.74;63.14
21988;BME280;11158;53.404;-1.510;2023-03-25T02:47:50;98074.56;;;9.34;64.51
21988;BME280;11158;53.404;-1.510;2023-03-25T02:50:55;98078.63;;;9.25;65.44
21988;BME280;11158;53.404;-1.510;2023-03-25T02:53:43;98081.84;;;8.91;65.60
21988;BME280;11158;53.404;-1.510;2023-03-25T02:56:28;98081.28;;;9.13;65.16
21988;BME280;11158;53.404;-1.510;2023-03-25T02:59:17;98094.72;;;9.18;64.79
21988;BME280;11158;53.404;-1.510;2023-03-25T03:02:06;98087.91;;;9.22;64.18
21988;BME280;11158;53.404;-1.510;2023-03-25T03:04:53;98091.59;;;9.44;63.51
21988;BME280;11158;53.404;-1.510;2023-03-25T03:07:42;98068.66;;;9.32;63.24
21988;BME280;11158;53.404;-1.510;2023-03-25T03:10:48;98083.59;;;9.09;63.71
21988;BME280;11158;53.404;-1.510;2023-03-25T03:17:02;98071.00;;;9.16;62.50
21988;BME280;11158;53.404;-1.510;2023-03-25T03:19:58;98041.88;;;9.15;62.14
21988;BME280;11158;53.404;-1.510;2023-03-25T03:22:49;98073.28;;;9.13;62.32
21988;BME280;11158;53.404;-1.510;2023-03-25T03:25:44;98067.22;;;9.53;61.36
21988;BME280;11158;53.404;-1.510;2023-03-25T03:28:46;98075.03;;;9.07;63.12
21988;BME280;11158;53.404;-1.510;2023-03-25T03:34:48;98071.88;;;9.46;60.89
21988;BME280;11158;53.404;-1.510;2023-03-25T03:37:41;98078.97;;;9.28;61.56
21988;BME280;11158;53.404;-1.510;2023-03-25T03:40:28;98084.88;;;9.54;60.71
21988;BME280;11158;53.404;-1.510;2023-03-25T03:43:18;98092.03;;;9.77;59.95
21988;BME280;11158;53.404;-1.510;2023-03-25T03:46:09;98084.72;;;9.72;60.23
21988;BME280;11158;53.404;-1.510;2023-03-25T03:48:59;98099.84;;;9.31;61.63
21988;BME280;11158;53.404;-1.510;2023-03-25T03:51:58;98125.31;;;9.86;60.52
21988;BME280;11158;53.404;-1.510;2023-03-25T03:54:54;98113.16;;;9.55;60.99
21988;BME280;11158;53.404;-1.510;2023-03-25T03:58:11;98115.94;;;9.72;61.96
21988;BME280;11158;53.404;-1.510;2023-03-25T04:01:03;98122.81;;;9.32;63.27
21988;BME280;11158;53.404;-1.510;2023-03-25T04:04:05;98137.84;;;9.62;62.86
21988;BME280;11158;53.404;-1.510;2023-03-25T04:07:00;98129.16;;;9.19;63.40
21988;BME280;11158;53.404;-1.510;2023-03-25T04:09:56;98134.69;;;8.94;64.42
21988;BME280;11158;53.404;-1.510;2023-03-25T04:12:49;98128.69;;;9.22;63.80
21988;BME280;11158;53.404;-1.510;2023-03-25T04:15:35;98145.13;;;9.08;64.66
21988;BME280;11158;53.404;-1.510;2023-03-25T04:18:19;98148.16;;;8.69;66.73
21988;BME280;11158;53.404;-1.510;2023-03-25T04:21:06;98157.19;;;9.10;67.13
21988;BME280;11158;53.404;-1.510;2023-03-25T04:23:51;98145.59;;;8.63;67.82
21988;BME280;11158;53.404;-1.510;2023-03-25T04:26:35;98133.50;;;8.48;67.84
21988;BME280;11158;53.404;-1.510;2023-03-25T04:29:20;98154.63;;;8.62;67.43
21988;BME280;11158;53.404;-1.510;2023-03-25T04:32:04;98155.44;;;8.62;67.28
21988;BME280;11158;53.404;-1.510;2023-03-25T04:34:49;98166.69;;;9.06;66.42
21988;BME280;11158;53.404;-1.510;2023-03-25T04:37:33;98182.81;;;8.81;67.81
21988;BME280;11158;53.404;-1.510;2023-03-25T04:40:20;98188.28;;;8.86;68.11
21988;BME280;11158;53.404;-1.510;2023-03-25T04:43:04;98168.53;;;8.45;69.00
21988;BME280;11158;53.404;-1.510;2023-03-25T04:45:48;98187.91;;;9.13;67.71
21988;BME280;11158;53.404;-1.510;2023-03-25T04:48:36;98183.09;;;8.91;68.01
21988;BME280;11158;53.404;-1.510;2023-03-25T04:51:24;98196.00;;;9.06;66.99
21988;BME280;11158;53.404;-1.510;2023-03-25T04:54:08;98201.75;;;8.91;66.81
21988;BME280;11158;53.404;-1.510;2023-03-25T04:56:52;98221.97;;;9.22;66.08
21988;BME280;11158;53.404;-1.510;2023-03-25T04:59:37;98230.59;;;9.36;66.33
21988;BME280;11158;53.404;-1.510;2023-03-25T05:02:21;98238.84;;;9.05;67.41
21988;BME280;11158;53.404;-1.510;2023-03-25T05:05:07;98241.72;;;9.33;66.94
21988;BME280;11158;53.404;-1.510;2023-03-25T05:07:53;98259.34;;;9.04;67.50
21988;BME280;11158;53.404;-1.510;2023-03-25T05:10:37;98228.50;;;8.85;68.23
21988;BME280;11158;53.404;-1.510;2023-03-25T05:13:22;98255.09;;;9.03;67.92
21988;BME280;11158;53.404;-1.510;2023-03-25T05:16:06;98258.25;;;9.12;67.54
21988;BME280;11158;53.404;-1.510;2023-03-25T05:18:51;98281.75;;;9.57;66.19
21988;BME280;11158;53.404;-1.510;2023-03-25T05:21:37;98281.25;;;9.36;65.93
21988;BME280;11158;53.404;-1.510;2023-03-25T05:24:21;98259.84;;;9.67;65.73
21988;BME280;11158;53.404;-1.510;2023-03-25T05:27:05;98273.66;;;9.10;66.44
21988;BME280;11158;53.404;-1.510;2023-03-25T05:29:49;98277.63;;;9.19;67.33
21988;BME280;11158;53.404;-1.510;2023-03-25T05:32:35;98282.34;;;9.59;66.62
21988;BME280;11158;53.404;-1.510;2023-03-25T05:35:19;98289.75;;;9.57;65.96
21988;BME280;11158;53.404;-1.510;2023-03-25T05:38:04;98294.66;;;9.30;66.33
21988;BME280;11158;53.404;-1.510;2023-03-25T05:40:51;98307.53;;;9.21;67.25
21988;BME280;11158;53.404;-1.510;2023-03-25T05:43:36;98311.13;;;9.27;67.79
21988;BME280;11158;53.404;-1.510;2023-03-25T05:46:21;98291.66;;;8.96;67.38
21988;BME280;11158;53.404;-1.510;2023-03-25T05:49:05;98313.59;;;8.98;67.66
21988;BME280;11158;53.404;-1.510;2023-03-25T05:51:49;98343.19;;;9.92;65.21
21988;BME280;11158;53.404;-1.510;2023-03-25T05:54:38;98342.72;;;9.95;64.87
21988;BME280;11158;53.404;-1.510;2023-03-25T05:57:24;98342.97;;;10.05;63.69
21988;BME280;11158;53.404;-1.510;2023-03-25T06:00:09;98355.69;;;9.08;66.62
21988;BME280;11158;53.404;-1.510;2023-03-25T06:02:55;98358.94;;;9.70;65.17
21988;BME280;11158;53.404;-1.510;2023-03-25T06:05:41;98353.13;;;9.73;64.50
21988;BME280;11158;53.404;-1.510;2023-03-25T06:08:26;98383.78;;;9.22;65.82
21988;BME280;11158;53.404;-1.510;2023-03-25T06:11:12;98375.44;;;9.49;66.26
21988;BME280;11158;53.404;-1.510;2023-03-25T06:13:57;98379.81;;;9.43;65.79
21988;BME280;11158;53.404;-1.510;2023-03-25T06:16:41;98401.13;;;9.13;66.41
21988;BME280;11158;53.404;-1.510;2023-03-25T06:19:26;98383.28;;;9.43;65.68
21988;BME280;11158;53.404;-1.510;2023-03-25T06:22:11;98402.72;;;9.51;65.17
21988;BME280;11158;53.404;-1.510;2023-03-25T06:24:55;98406.47;;;9.73;64.47
21988;BME280;11158;53.404;-1.510;2023-03-25T06:27:39;98405.56;;;9.37;65.73
21988;BME280;11158;53.404;-1.510;2023-03-25T06:30:24;98405.31;;;9.39;65.92
21988;BME280;11158;53.404;-1.510;2023-03-25T06:33:09;98416.66;;;9.34;65.24
21988;BME280;11158;53.404;-1.510;2023-03-25T06:35:53;98423.63;;;9.35;65.59
21988;BME280;11158;53.404;-1.510;2023-03-25T06:38:38;98427.91;;;9.97;63.71
21988;BME280;11158;53.404;-1.510;2023-03-25T06:41:22;98434.66;;;9.99;64.12
21988;BME280;11158;53.404;-1.510;2023-03-25T06:44:08;98437.66;;;10.45;63.45
21988;BME280;11158;53.404;-1.510;2023-03-25T06:46:53;98449.44;;;9.83;65.30
21988;BME280;11158;53.404;-1.510;2023-03-25T06:49:37;98446.41;;;9.80;63.61
21988;BME280;11158;53.404;-1.510;2023-03-25T06:52:22;98459.84;;;9.73;64.84
21988;BME280;11158;53.404;-1.510;2023-03-25T06:55:06;98476.78;;;9.97;64.79
21988;BME280;11158;53.404;-1.510;2023-03-25T06:57:55;98501.66;;;10.21;63.44
21988;BME280;11158;53.404;-1.510;2023-03-25T07:00:39;98495.06;;;9.94;64.52
21988;BME280;11158;53.404;-1.510;2023-03-25T07:03:23;98499.56;;;10.12;64.00
21988;BME280;11158;53.404;-1.510;2023-03-25T07:06:07;98499.56;;;10.12;63.80
21988;BME280;11158;53.404;-1.510;2023-03-25T07:08:53;98506.31;;;10.56;62.13
21988;BME280;11158;53.404;-1.510;2023-03-25T07:11:37;98516.53;;;10.59;61.61
21988;BME280;11158;53.404;-1.510;2023-03-25T07:14:21;98518.41;;;9.98;63.28
21988;BME280;11158;53.404;-1.510;2023-03-25T07:17:05;98521.19;;;10.22;62.65
21988;BME280;11158;53.404;-1.510;2023-03-25T07:19:51;98533.97;;;10.74;61.92
21988;BME280;11158;53.404;-1.510;2023-03-25T07:22:35;98529.69;;;10.61;61.44
21988;BME280;11158;53.404;-1.510;2023-03-25T07:25:19;98539.94;;;10.34;62.69
21988;BME280;11158;53.404;-1.510;2023-03-25T07:28:04;98543.28;;;9.99;63.12
21988;BME280;11158;53.404;-1.510;2023-03-25T07:30:48;98541.72;;;10.21;63.56
21988;BME280;11158;53.404;-1.510;2023-03-25T07:33:32;98553.97;;;10.29;63.69
21988;BME280;11158;53.404;-1.510;2023-03-25T07:36:16;98543.34;;;10.41;63.64
21988;BME280;11158;53.404;-1.510;2023-03-25T07:39:01;98546.84;;;9.93;64.69
21988;BME280;11158;53.404;-1.510;2023-03-25T07:41:46;98535.13;;;9.75;64.50
21988;BME280;11158;53.404;-1.510;2023-03-25T07:44:30;98545.94;;;9.99;63.94
21988;BME280;11158;53.404;-1.510;2023-03-25T07:47:14;98559.00;;;9.89;63.78
21988;BME280;11158;53.404;-1.510;2023-03-25T07:49:58;98560.28;;;10.16;63.28
21988;BME280;11158;53.404;-1.510;2023-03-25T07:52:42;98553.34;;;10.45;61.88
21988;BME280;11158;53.404;-1.510;2023-03-25T07:55:27;98574.72;;;10.57;61.86
21988;BME280;11158;53.404;-1.510;2023-03-25T07:58:12;98587.91;;;10.71;61.84
21988;BME280;11158;53.404;-1.510;2023-03-25T08:00:56;98591.56;;;10.58;62.26
21988;BME280;11158;53.404;-1.510;2023-03-25T08:03:41;98604.31;;;10.44;62.29
21988;BME280;11158;53.404;-1.510;2023-03-25T08:06:24;98582.25;;;10.48;61.71
21988;BME280;11158;53.404;-1.510;2023-03-25T08:09:09;98604.97;;;10.69;61.63
21988;BME280;11158;53.404;-1.510;2023-03-25T08:11:53;98614.94;;;10.62;61.14
21988;BME280;11158;53.404;-1.510;2023-03-25T08:14:38;98628.69;;;10.78;61.00
21988;BME280;11158;53.404;-1.510;2023-03-25T08:17:22;98625.38;;;11.06;60.09
21988;BME280;11158;53.404;-1.510;2023-03-25T08:20:06;98645.03;;;11.00;59.30
21988;BME280;11158;53.404;-1.510;2023-03-25T08:22:51;98661.69;;;10.83;59.77
21988;BME280;11158;53.404;-1.510;2023-03-25T08:25:37;98667.03;;;11.37;58.68
21988;BME280;11158;53.404;-1.510;2023-03-25T08:28:21;98675.53;;;11.69;57.40
21988;BME280;11158;53.404;-1.510;2023-03-25T08:31:06;98686.72;;;11.90;56.38
21988;BME280;11158;53.404;-1.510;2023-03-25T08:33:51;98688.22;;;11.98;56.97
21988;BME280;11158;53.404;-1.510;2023-03-25T08:36:35;98697.53;;;12.07;56.57
21988;BME280;11158;53.404;-1.510;2023-03-25T08:39:22;98704.84;;;12.11;56.14
21988;BME280;11158;53.404;-1.510;2023-03-25T08:42:12;98711.53;;;12.49;54.75
21988;BME280;11158;53.404;-1.510;2023-03-25T08:44:56;98712.84;;;12.47;55.23
21988;BME280;11158;53.404;-1.510;2023-03-25T08:47:42;98718.94;;;12.99;53.59
21988;BME280;11158;53.404;-1.510;2023-03-25T08:50:27;98716.66;;;12.79;53.42
21988;BME280;11158;53.404;-1.510;2023-03-25T08:53:11;98728.09;;;12.34;55.70
21988;BME280;11158;53.404;-1.510;2023-03-25T08:55:56;98753.38;;;11.56;56.73
21988;BME280;11158;53.404;-1.510;2023-03-25T08:58:41;98748.50;;;12.35;55.27
21988;BME280;11158;53.404;-1.510;2023-03-25T09:01:25;98755.63;;;12.70;54.55
21988;BME280;11158;53.404;-1.510;2023-03-25T09:04:10;98767.31;;;12.64;54.15
21988;BME280;11158;53.404;-1.510;2023-03-25T09:06:55;98763.19;;;12.85;53.91
21988;BME280;11158;53.404;-1.510;2023-03-25T09:09:39;98774.38;;;12.42;54.57
21988;BME280;11158;53.404;-1.510;2023-03-25T09:12:23;98791.91;;;12.61;54.27
21988;BME280;11158;53.404;-1.510;2023-03-25T09:15:08;98786.09;;;13.50;51.52
21988;BME280;11158;53.404;-1.510;2023-03-25T09:17:53;98791.94;;;13.30;51.71
21988;BME280;11158;53.404;-1.510;2023-03-25T09:20:37;98800.63;;;12.68;53.55
21988;BME280;11158;53.404;-1.510;2023-03-25T09:23:21;98796.91;;;12.69;53.48
21988;BME280;11158;53.404;-1.510;2023-03-25T09:26:05;98819.09;;;12.93;54.40
21988;BME280;11158;53.404;-1.510;2023-03-25T09:28:50;98836.47;;;12.27;57.30
21988;BME280;11158;53.404;-1.510;2023-03-25T09:31:34;98832.63;;;11.27;58.87
21988;BME280;11158;53.404;-1.510;2023-03-25T09:34:18;98842.78;;;11.06;59.71
21988;BME280;11158;53.404;-1.510;2023-03-25T09:37:02;98846.03;;;11.69;58.78
21988;BME280;11158;53.404;-1.510;2023-03-25T09:39:47;98853.03;;;11.40;59.52
21988;BME280;11158;53.404;-1.510;2023-03-25T09:45:43;98860.09;;;11.64;58.56
21988;BME280;11158;53.404;-1.510;2023-03-25T09:51:19;98864.88;;;12.51;56.50
21988;BME280;11158;53.404;-1.510;2023-03-25T09:54:31;98863.84;;;13.05;54.66
21988;BME280;11158;53.404;-1.510;2023-03-25T09:57:21;98877.53;;;13.60;53.64
21988;BME280;11158;53.404;-1.510;2023-03-25T10:00:19;98874.25;;;13.70;53.27
21988;BME280;11158;53.404;-1.510;2023-03-25T10:03:08;98883.41;;;13.17;54.23
21988;BME280;11158;53.404;-1.510;2023-03-25T10:06:02;98891.06;;;12.85;54.25
21988;BME280;11158;53.404;-1.510;2023-03-25T10:09:02;98887.50;;;13.31;53.14
21988;BME280;11158;53.404;-1.510;2023-03-25T10:24:39;98944.19;;;12.17;55.94
21988;BME280;11158;53.404;-1.510;2023-03-25T10:27:35;98936.53;;;12.79;54.99
21988;BME280;11158;53.404;-1.510;2023-03-25T10:30:31;98943.88;;;12.37;54.37
21988;BME280;11158;53.404;-1.510;2023-03-25T10:36:14;98943.34;;;13.34;52.88
21988;BME280;11158;53.404;-1.510;2023-03-25T10:39:08;98953.78;;;12.84;53.27
21988;BME280;11158;53.404;-1.510;2023-03-25T10:42:03;98945.38;;;12.80;53.09
21988;BME280;11158;53.404;-1.510;2023-03-25T10:44:47;98960.97;;;13.71;51.35
21988;BME280;11158;53.404;-1.510;2023-03-25T10:47:35;98963.53;;;13.37;52.14
21988;BME280;11158;53.404;-1.510;2023-03-25T10:50:21;98972.19;;;14.59;49.98
21988;BME280;11158;53.404;-1.510;2023-03-25T10:53:26;98962.56;;;13.55;51.23
21988;BME280;11158;53.404;-1.510;2023-03-25T10:56:13;98981.34;;;13.55;50.95
21988;BME280;11158;53.404;-1.510;2023-03-25T10:59:04;98978.03;;;13.36;51.61
21988;BME280;11158;53.404;-1.510;2023-03-25T11:01:51;98982.13;;;13.15;51.36
21988;BME280;11158;53.404;-1.510;2023-03-25T11:04:39;98991.06;;;13.20;52.34
21988;BME280;11158;53.404;-1.510;2023-03-25T11:07:43;98996.56;;;13.78;51.06
21988;BME280;11158;53.404;-1.510;2023-03-25T11:10:28;99002.50;;;13.16;52.58
21988;BME280;11158;53.404;-1.510;2023-03-25T11:13:15;99004.38;;;13.15;50.61
21988;BME280;11158;53.404;-1.510;2023-03-25T11:16:05;99015.63;;;13.65;49.66
21988;BME280;11158;53.404;-1.510;2023-03-25T11:18:51;99027.63;;;14.60;47.70
21988;BME280;11158;53.404;-1.510;2023-03-25T11:21:36;99030.53;;;13.84;49.36
21988;BME280;11158;53.404;-1.510;2023-03-25T11:24:22;99047.75;;;14.74;47.85
21988;BME280;11158;53.404;-1.510;2023-03-25T11:27:07;99051.66;;;14.66;47.93
21988;BME280;11158;53.404;-1.510;2023-03-25T11:30:03;99062.50;;;14.55;48.93
21988;BME280;11158;53.404;-1.510;2023-03-25T11:35:43;99089.78;;;13.42;51.71
21988;BME280;11158;53.404;-1.510;2023-03-25T11:38:29;99085.31;;;14.69;48.96
21988;BME280;11158;53.404;-1.510;2023-03-25T11:41:17;99087.59;;;14.60;49.17
21988;BME280;11158;53.404;-1.510;2023-03-25T11:44:04;99098.66;;;13.54;53.08
21988;BME280;11158;53.404;-1.510;2023-03-25T11:46:58;99094.78;;;13.27;55.13
21988;BME280;11158;53.404;-1.510;2023-03-25T11:49:47;99102.34;;;12.52;57.90
21988;BME280;11158;53.404;-1.510;2023-03-25T11:52:43;99103.66;;;12.62;56.88
21988;BME280;11158;53.404;-1.510;2023-03-25T11:55:31;99106.53;;;12.78;56.26
21988;BME280;11158;53.404;-1.510;2023-03-25T11:58:18;99106.78;;;13.12;54.23
21988;BME280;11158;53.404;-1.510;2023-03-25T12:04:23;99103.16;;;14.46;51.19
21988;BME280;11158;53.404;-1.510;2023-03-25T12:07:08;99113.94;;;14.75;49.39
21988;BME280;11158;53.404;-1.510;2023-03-25T12:09:58;99109.69;;;14.22;50.14
21988;BME280;11158;53.404;-1.510;2023-03-25T12:13:06;99124.88;;;15.19;48.38
21988;BME280;11158;53.404;-1.510;2023-03-25T12:16:03;99123.50;;;13.73;50.13
21988;BME280;11158;53.404;-1.510;2023-03-25T12:25:16;99092.09;;;13.62;48.60
21988;BME280;11158;53.404;-1.510;2023-03-25T12:34:35;99126.66;;;14.97;47.69
21988;BME280;11158;53.404;-1.510;2023-03-25T12:44:07;99130.75;;;16.11;45.54
21988;BME280;11158;53.404;-1.510;2023-03-25T12:54:02;99135.66;;;15.92;43.60
21988;BME280;11158;53.404;-1.510;2023-03-25T13:06:31;99146.00;;;15.11;45.49
21988;BME280;11158;53.404;-1.510;2023-03-25T13:09:25;99135.25;;;14.36;46.64
21988;BME280;11158;53.404;-1.510;2023-03-25T13:12:20;99149.81;;;14.12;46.27
21988;BME280;11158;53.404;-1.510;2023-03-25T13:15:19;99141.53;;;14.42;45.88
21988;BME280;11158;53.404;-1.510;2023-03-25T13:18:11;99146.03;;;14.82;45.34
21988;BME280;11158;53.404;-1.510;2023-03-25T13:21:02;99142.38;;;14.71;45.82
21988;BME280;11158;53.404;-1.510;2023-03-25T13:23:55;99142.31;;;15.34;44.03
21988;BME280;11158;53.404;-1.510;2023-03-25T13:26:43;99146.16;;;15.72;44.50
21988;BME280;11158;53.404;-1.510;2023-03-25T13:32:45;99148.69;;;14.94;45.77
21988;BME280;11158;53.404;-1.510;2023-03-25T13:38:33;99174.59;;;15.00;44.85
21988;BME280;11158;53.404;-1.510;2023-03-25T13:41:42;99169.94;;;14.78;45.26
21988;BME280;11158;53.404;-1.510;2023-03-25T13:44:39;99182.66;;;14.42;45.91
21988;BME280;11158;53.404;-1.510;2023-03-25T13:47:35;99170.19;;;14.36;46.09
21988;BME280;11158;53.404;-1.510;2023-03-25T13:50:27;99181.63;;;14.43;46.54
21988;BME280;11158;53.404;-1.510;2023-03-25T13:53:26;99177.94;;;14.21;47.19
21988;BME280;11158;53.404;-1.510;2023-03-25T14:02:28;99188.81;;;14.14;46.84
21988;BME280;11158;53.404;-1.510;2023-03-25T14:11:50;99183.91;;;14.92;44.84
21988;BME280;11158;53.404;-1.510;2023-03-25T14:14:43;99202.09;;;15.02;44.72
21988;BME280;11158;53.404;-1.510;2023-03-25T14:17:30;99195.09;;;14.72;43.65
21988;BME280;11158;53.404;-1.510;2023-03-25T14:20:24;99204.41;;;15.10;43.73
21988;BME280;11158;53.404;-1.510;2023-03-25T14:23:16;99211.22;;;14.72;44.62
21988;BME280;11158;53.404;-1.510;2023-03-25T14:26:04;99212.31;;;15.17;43.17
21988;BME280;11158;53.404;-1.510;2023-03-25T14:28:54;99211.66;;;15.43;43.62
21988;BME280;11158;53.404;-1.510;2023-03-25T14:32:04;99220.91;;;15.02;44.07
21988;BME280;11158;53.404;-1.510;2023-03-25T14:34:49;99232.38;;;14.80;43.50
21988;BME280;11158;53.404;-1.510;2023-03-25T14:37:33;99249.66;;;14.44;45.55
21988;BME280;11158;53.404;-1.510;2023-03-25T14:46:21;99235.56;;;15.57;44.04
21988;BME280;11158;53.404;-1.510;2023-03-25T14:49:19;99238.13;;;15.01;45.50
21988;BME280;11158;53.404;-1.510;2023-03-25T14:52:13;99242.31;;;15.25;45.71
21988;BME280;11158;53.404;-1.510;2023-03-25T14:55:05;99241.28;;;15.43;45.79
21988;BME280;11158;53.404;-1.510;2023-03-25T14:57:58;99235.47;;;15.18;45.77
21988;BME280;11158;53.404;-1.510;2023-03-25T15:03:30;99256.53;;;14.40;46.50
21988;BME280;11158;53.404;-1.510;2023-03-25T15:06:28;99255.03;;;14.56;47.18
21988;BME280;11158;53.404;-1.510;2023-03-25T15:09:16;99265.72;;;13.92;47.39
21988;BME280;11158;53.404;-1.510;2023-03-25T15:12:03;99272.47;;;13.71;47.78
21988;BME280;11158;53.404;-1.510;2023-03-25T15:14:50;99267.91;;;14.30;46.85
21988;BME280;11158;53.404;-1.510;2023-03-25T15:17:46;99285.19;;;14.58;46.13
21988;BME280;11158;53.404;-1.510;2023-03-25T15:20:32;99277.88;;;14.70;46.09
21988;BME280;11158;53.404;-1.510;2023-03-25T15:23:19;99286.91;;;14.52;46.61
21988;BME280;11158;53.404;-1.510;2023-03-25T15:26:10;99270.97;;;13.98;47.84
21988;BME280;11158;53.404;-1.510;2023-03-25T15:29:15;99271.47;;;14.48;47.73
21988;BME280;11158;53.404;-1.510;2023-03-25T15:32:23;99275.88;;;14.25;48.10
21988;BME280;11158;53.404;-1.510;2023-03-25T15:35:31;99270.97;;;13.75;49.42
21988;BME280;11158;53.404;-1.510;2023-03-25T15:41:23;99279.06;;;14.74;47.10
21988;BME280;11158;53.404;-1.510;2023-03-25T15:44:22;99274.44;;;14.34;47.73
21988;BME280;11158;53.404;-1.510;2023-03-25T15:56:46;99272.44;;;14.94;46.62
21988;BME280;11158;53.404;-1.510;2023-03-25T15:59:49;99278.84;;;14.52;46.85
21988;BME280;11158;53.404;-1.510;2023-03-25T16:05:58;99266.97;;;14.13;47.54
21988;BME280;11158;53.404;-1.510;2023-03-25T16:08:45;99279.25;;;13.61;49.22
21988;BME280;11158;53.404;-1.510;2023-03-25T16:11:31;99282.97;;;14.31;47.99
21988;BME280;11158;53.404;-1.510;2023-03-25T16:14:19;99281.81;;;14.03;48.24
21988;BME280;11158;53.404;-1.510;2023-03-25T16:17:05;99268.50;;;14.32;47.71
21988;BME280;11158;53.404;-1.510;2023-03-25T16:19:52;99283.69;;;14.15;48.19
21988;BME280;11158;53.404;-1.510;2023-03-25T16:22:40;99278.44;;;13.73;49.10
21988;BME280;11158;53.404;-1.510;2023-03-25T16:25:31;99281.00;;;13.91;48.48
21988;BME280;11158;53.404;-1.510;2023-03-25T16:31:30;99282.94;;;14.43;47.49
21988;BME280;11158;53.404;-1.510;2023-03-25T16:34:15;99291.03;;;14.19;47.29
21988;BME280;11158;53.404;-1.510;2023-03-25T16:37:00;99297.00;;;14.33;47.28
21988;BME280;11158;53.404;-1.510;2023-03-25T16:39:53;99301.53;;;14.44;46.70
21988;BME280;11158;53.404;-1.510;2023-03-25T16:42:37;99291.97;;;14.37;47.01
21988;BME280;11158;53.404;-1.510;2023-03-25T16:45:22;99295.94;;;14.58;46.21
21988;BME280;11158;53.404;-1.510;2023-03-25T16:48:14;99294.16;;;15.49;44.25
21988;BME280;11158;53.404;-1.510;2023-03-25T16:51:21;99298.94;;;14.73;46.50
21988;BME280;11158;53.404;-1.510;2023-03-25T16:54:08;99286.00;;;14.99;45.46
21988;BME280;11158;53.404;-1.510;2023-03-25T16:56:53;99293.00;;;15.00;45.66
21988;BME280;11158;53.404;-1.510;2023-03-25T16:59:38;99287.91;;;15.78;44.18
21988;BME280;11158;53.404;-1.510;2023-03-25T17:02:23;99284.94;;;15.28;45.17
21988;BME280;11158;53.404;-1.510;2023-03-25T17:05:27;99287.56;;;15.40;44.77
21988;BME280;11158;53.404;-1.510;2023-03-25T17:08:20;99295.84;;;15.39;44.44
21988;BME280;11158;53.404;-1.510;2023-03-25T17:11:07;99285.31;;;16.00;43.17